createdAt,value
2022-08-22T00:00:05.346Z,84.80
2022-08-22T00:01:06.205Z,85.41
2022-08-22T00:02:05.717Z,86.13
2022-08-22T00:02:44.826Z,66.71
2022-08-22T00:02:55.668Z,85.29
2022-08-22T00:02:57.678Z,86.37
2022-08-22T00:03:01.815Z,80.01
2022-08-22T00:03:07.733Z,86.47
2022-08-22T00:03:10.106Z,82.67
2022-08-22T00:03:10.287Z,84.60
2022-08-22T00:04:05.647Z,86.06
2022-08-22T00:05:04.165Z,87.79
2022-08-22T00:06:04.038Z,87.79
2022-08-22T00:07:04.639Z,88.10
2022-08-22T00:08:04.325Z,88.40
2022-08-22T00:09:05.208Z,87.49
2022-08-22T00:10:06.012Z,88.10
2022-08-22T00:12:44.219Z,88.36
2022-08-22T00:13:45.135Z,88.06
2022-08-22T00:16:23.618Z,89.01
2022-08-22T00:18:54.163Z,90.14
2022-08-22T00:19:54.591Z,89.94
2022-08-22T00:22:52.849Z,88.85
2022-08-22T00:23:52.791Z,88.45
2022-08-22T00:26:21.521Z,88.31
2022-08-22T00:27:21.175Z,88.51
2022-08-22T00:28:21.557Z,86.88
2022-08-22T00:29:23.179Z,88.40
2022-08-22T00:30:21.901Z,88.40
2022-08-22T00:31:22.862Z,87.90
2022-08-22T00:33:52.639Z,87.55
2022-08-22T00:34:49.253Z,87.69
2022-08-22T00:35:52.300Z,86.06
2022-08-22T00:36:51.522Z,86.55
2022-08-22T00:37:59.206Z,87.16
2022-08-22T00:38:50.913Z,88.63
2022-08-22T00:39:50.854Z,89.34
2022-08-22T00:40:51.336Z,90.20
2022-08-22T00:41:51.887Z,90.41
2022-08-22T00:42:50.703Z,90.81
2022-08-22T00:43:49.248Z,89.86
2022-08-22T00:44:52.611Z,88.73
2022-08-22T00:45:51.089Z,88.63
2022-08-22T00:48:37.679Z,88.28
2022-08-22T00:49:39.120Z,87.67
2022-08-22T00:50:39.033Z,87.73
2022-08-22T00:53:07.554Z,87.98
2022-08-22T00:55:48.329Z,87.43
2022-08-22T00:56:50.258Z,88.96
2022-08-22T00:57:57.663Z,89.77
2022-08-22T00:58:48.345Z,89.36
2022-08-22T00:59:48.443Z,88.96
2022-08-22T01:00:59.230Z,88.34
2022-08-22T01:01:48.582Z,88.24
2022-08-22T01:02:52.420Z,88.24
2022-08-22T01:03:52.576Z,88.45
2022-08-22T01:06:32.916Z,87.23
2022-08-22T01:07:37.910Z,88.45
2022-08-22T01:08:34.051Z,88.24
2022-08-22T01:09:34.307Z,88.28
2022-08-22T01:10:32.917Z,89.51
2022-08-22T01:13:07.425Z,88.39
2022-08-22T01:14:08.180Z,87.63
2022-08-22T01:17:10.392Z,88.24
2022-08-22T01:18:10.154Z,87.67
2022-08-22T01:19:11.400Z,87.98
2022-08-22T01:20:11.891Z,88.14
2022-08-22T01:21:13.710Z,88.45
2022-08-22T01:23:56.685Z,88.45
2022-08-22T01:24:57.153Z,87.94
2022-08-22T01:26:07.024Z,87.53
2022-08-22T01:26:57.828Z,88.45
2022-08-22T01:27:58.477Z,88.96
2022-08-22T01:28:57.975Z,89.10
2022-08-22T01:29:56.879Z,89.00
2022-08-22T01:30:56.143Z,90.06
2022-08-22T01:31:57.734Z,88.93
2022-08-22T01:34:26.281Z,88.84
2022-08-22T01:35:27.966Z,88.63
2022-08-22T01:36:26.556Z,88.22
2022-08-22T01:37:27.023Z,88.12
2022-08-22T01:38:25.550Z,87.10
2022-08-22T01:39:26.445Z,88.12
2022-08-22T01:40:27.201Z,88.84
2022-08-22T01:41:27.287Z,89.14
2022-08-22T01:42:26.114Z,90.06
2022-08-22T01:44:00.018Z,90.16
2022-08-22T01:44:26.913Z,88.57
2022-08-22T01:45:25.132Z,88.26
2022-08-22T01:46:25.083Z,88.78
2022-08-22T01:47:25.679Z,88.98
2022-08-22T01:48:26.558Z,89.39
2022-08-22T01:50:57.102Z,89.18
2022-08-22T01:52:06.162Z,90.41
2022-08-22T01:52:55.854Z,90.71
2022-08-22T01:55:39.240Z,90.41
2022-08-22T01:56:39.444Z,88.88
2022-08-22T01:57:39.626Z,88.47
2022-08-22T01:58:39.651Z,88.37
2022-08-22T01:59:42.687Z,88.78
2022-08-22T02:00:38.805Z,88.43
2022-08-22T02:01:40.992Z,88.67
2022-08-22T02:02:42.596Z,88.43
2022-08-22T02:03:40.687Z,87.96
2022-08-22T02:04:46.800Z,87.85
2022-08-22T02:05:38.946Z,87.85
2022-08-22T02:06:43.669Z,87.30
2022-08-22T02:07:40.945Z,88.67
2022-08-22T02:08:38.873Z,88.47
2022-08-22T02:09:39.251Z,88.12
2022-08-22T02:12:21.995Z,88.22
2022-08-22T02:13:19.645Z,88.26
2022-08-22T02:14:19.964Z,89.28
2022-08-22T02:15:18.583Z,90.16
2022-08-22T02:16:19.033Z,90.10
2022-08-22T02:17:19.611Z,88.17
2022-08-22T02:18:22.079Z,88.17
2022-08-22T02:19:20.719Z,86.43
2022-08-22T02:20:20.285Z,87.59
2022-08-22T02:21:20.200Z,87.59
2022-08-22T02:22:27.311Z,87.32
2022-08-22T02:23:22.785Z,86.71
2022-08-22T02:25:55.961Z,86.10
2022-08-22T02:26:55.825Z,85.38
2022-08-22T02:27:56.077Z,85.89
2022-08-22T02:30:42.196Z,87.12
2022-08-22T02:33:12.234Z,86.61
2022-08-22T02:34:14.340Z,87.12
2022-08-22T02:35:15.449Z,88.35
2022-08-22T02:36:13.249Z,87.63
2022-08-22T02:37:12.247Z,87.23
2022-08-22T02:38:12.894Z,87.23
2022-08-22T02:39:12.909Z,86.51
2022-08-22T02:40:12.849Z,86.61
2022-08-22T02:41:11.741Z,86.71
2022-08-22T02:42:13.576Z,86.71
2022-08-22T02:43:14.462Z,87.49
2022-08-22T02:44:13.400Z,88.71
2022-08-22T02:45:13.370Z,88.45
2022-08-22T02:46:14.491Z,88.85
2022-08-22T02:47:12.250Z,88.55
2022-08-22T02:48:12.207Z,88.55
2022-08-22T02:49:12.119Z,89.26
2022-08-22T02:50:15.262Z,89.26
2022-08-22T02:51:13.772Z,88.55
2022-08-22T02:52:18.332Z,88.45
2022-08-22T02:53:15.672Z,88.14
2022-08-22T02:57:36.171Z,87.79
2022-08-22T02:58:33.068Z,88.35
2022-08-22T02:59:34.917Z,88.92
2022-08-22T03:00:37.630Z,87.08
2022-08-22T03:01:34.351Z,87.70
2022-08-22T03:02:35.031Z,88.51
2022-08-22T03:03:33.979Z,88.61
2022-08-22T03:04:34.373Z,87.12
2022-08-22T03:05:32.685Z,86.82
2022-08-22T03:06:34.751Z,88.65
2022-08-22T03:07:33.966Z,88.85
2022-08-22T03:08:32.909Z,88.35
2022-08-22T03:09:33.299Z,88.14
2022-08-22T03:10:33.902Z,88.45
2022-08-22T03:11:34.601Z,87.53
2022-08-22T03:12:33.363Z,88.65
2022-08-22T03:13:32.915Z,87.94
2022-08-22T03:14:32.804Z,86.55
2022-08-22T03:15:34.824Z,87.00
2022-08-22T03:16:32.832Z,86.59
2022-08-22T03:17:33.408Z,88.17
2022-08-22T03:18:35.021Z,88.68
2022-08-22T03:21:04.405Z,90.31
2022-08-22T03:22:05.587Z,90.21
2022-08-22T03:23:07.121Z,90.41
2022-08-22T03:24:07.641Z,89.29
2022-08-22T03:25:13.278Z,88.47
2022-08-22T03:26:07.728Z,89.09
2022-08-22T03:27:06.487Z,87.92
2022-08-22T03:28:06.025Z,87.71
2022-08-22T03:31:45.898Z,90.99
2022-08-22T03:32:47.293Z,91.25
2022-08-22T03:33:48.327Z,89.92
2022-08-22T03:36:38.495Z,91.05
2022-08-22T03:37:37.085Z,89.45
2022-08-22T03:38:37.235Z,88.23
2022-08-22T03:41:19.370Z,87.35
2022-08-22T03:42:24.831Z,87.55
2022-08-22T03:43:14.348Z,88.31
2022-08-22T03:44:13.881Z,88.82
2022-08-22T03:45:08.097Z,89.43
2022-08-22T03:48:49.496Z,88.62
2022-08-22T03:49:49.301Z,88.26
2022-08-22T03:50:50.180Z,88.26
2022-08-22T03:51:53.063Z,88.98
2022-08-22T03:52:50.566Z,88.57
2022-08-22T03:55:29.993Z,88.68
2022-08-22T03:56:35.627Z,88.47
2022-08-22T03:58:30.404Z,88.78
2022-08-22T03:59:19.280Z,88.26
2022-08-22T04:00:21.480Z,88.33
2022-08-22T04:01:22.023Z,89.29
2022-08-22T04:02:24.694Z,89.04
2022-08-22T04:03:21.532Z,90.37
2022-08-22T04:04:21.255Z,90.78
2022-08-22T04:05:22.054Z,90.58
2022-08-22T04:06:21.505Z,89.04
2022-08-22T04:07:32.185Z,90.17
2022-08-22T04:10:51.067Z,88.74
2022-08-22T04:12:01.775Z,88.53
2022-08-22T04:16:18.948Z,87.43
2022-08-22T04:18:21.906Z,90.44
2022-08-22T04:25:40.332Z,90.36
2022-08-22T04:26:40.428Z,90.36
2022-08-22T04:27:48.288Z,89.23
2022-08-22T04:30:07.002Z,90.36
2022-08-22T04:31:07.504Z,90.45
2022-08-22T04:32:08.458Z,90.56
2022-08-22T04:38:49.015Z,90.41
2022-08-22T04:41:45.364Z,91.03
2022-08-22T04:46:37.034Z,93.13
2022-08-22T04:47:43.280Z,91.85
2022-08-22T04:55:02.693Z,90.33
2022-08-22T04:58:29.079Z,89.41
2022-08-22T04:59:30.124Z,88.79
2022-08-22T05:00:34.613Z,89.26
2022-08-22T05:01:32.340Z,88.55
2022-08-22T05:02:35.515Z,88.79
2022-08-22T05:03:33.257Z,88.55
2022-08-22T05:04:33.697Z,88.55
2022-08-22T05:05:34.551Z,88.45
2022-08-22T05:06:30.213Z,88.55
2022-08-22T05:07:33.948Z,89.17
2022-08-22T05:08:36.606Z,89.17
2022-08-22T05:09:31.857Z,90.25
2022-08-22T05:10:38.137Z,90.25
2022-08-22T05:12:54.681Z,90.35
2022-08-22T05:13:45.030Z,89.94
2022-08-22T05:22:32.542Z,90.86
2022-08-22T05:23:38.376Z,91.16
2022-08-22T05:24:35.599Z,90.96
2022-08-22T05:25:32.183Z,90.51
2022-08-22T05:26:31.179Z,90.51
2022-08-22T05:27:31.168Z,90.26
2022-08-22T05:28:31.194Z,88.84
2022-08-22T05:29:31.156Z,88.49
2022-08-22T05:30:31.179Z,88.18
2022-08-22T05:31:31.148Z,88.49
2022-08-22T06:00:21.793Z,85.52
2022-08-22T06:00:55.803Z,85.21
2022-08-22T06:04:46.213Z,84.26
2022-08-22T06:05:22.844Z,84.80
2022-08-22T06:06:22.681Z,84.97
2022-08-22T06:07:22.681Z,83.61
2022-08-22T06:08:22.649Z,83.81
2022-08-22T06:09:22.653Z,83.91
2022-08-22T06:10:22.667Z,84.12
2022-08-22T06:11:22.617Z,83.61
2022-08-22T06:18:34.792Z,85.03
2022-08-22T06:19:19.625Z,84.32
2022-08-22T06:20:16.826Z,84.58
2022-08-22T06:21:16.712Z,83.67
2022-08-22T07:10:05.324Z,65.12
2022-08-22T07:25:22.760Z,60.44
2022-08-22T07:26:22.735Z,60.93
2022-08-22T07:27:22.738Z,60.44
2022-08-22T07:28:36.518Z,60.53
2022-08-22T07:29:23.678Z,61.16
2022-08-22T07:30:27.827Z,60.77
2022-08-22T07:31:23.657Z,61.29
2022-08-22T07:32:22.703Z,61.36
2022-08-22T07:33:27.025Z,61.29
2022-08-22T07:34:22.716Z,61.76
2022-08-22T07:35:22.683Z,60.83
2022-08-22T07:36:23.239Z,59.31
2022-08-22T07:37:22.603Z,59.74
2022-08-22T07:38:22.582Z,59.64
2022-08-22T07:39:22.564Z,59.34
2022-08-22T07:40:22.593Z,60.63
2022-08-22T07:41:22.533Z,61.30
2022-08-22T07:42:22.559Z,59.58
2022-08-22T07:43:22.520Z,60.91
2022-08-22T07:44:22.535Z,61.08
2022-08-22T07:45:22.507Z,57.82
2022-08-22T07:46:22.515Z,57.65
2022-08-22T07:47:26.088Z,58.03
2022-08-22T07:48:25.757Z,59.79
2022-08-22T07:49:22.464Z,57.47
2022-08-22T07:50:22.461Z,56.08
2022-08-22T07:51:22.469Z,56.42
2022-08-22T07:52:22.463Z,56.25
2022-08-22T07:53:22.421Z,55.76
2022-08-22T07:54:22.436Z,55.68
2022-08-22T07:55:22.440Z,57.23
2022-08-22T07:56:22.409Z,57.56
2022-08-22T07:57:22.397Z,57.86
2022-08-22T07:58:22.377Z,59.25
2022-08-22T07:59:22.415Z,58.92
2022-08-22T08:00:22.408Z,57.93
2022-08-22T08:01:22.386Z,58.12
2022-08-22T08:02:22.392Z,57.56
2022-08-22T08:03:22.336Z,59.52
2022-08-22T08:04:22.329Z,59.99
2022-08-22T08:05:22.308Z,58.10
2022-08-22T08:06:22.306Z,58.67
2022-08-22T08:07:22.387Z,58.64
2022-08-22T08:08:22.302Z,58.31
2022-08-22T08:09:22.288Z,57.22
2022-08-22T08:10:22.258Z,56.20
2022-08-22T08:11:22.290Z,56.10
2022-08-22T08:12:22.310Z,55.82
2022-08-22T08:13:22.240Z,59.38
2022-08-22T08:14:22.229Z,56.30
2022-08-22T08:15:22.247Z,56.32
2022-08-22T08:16:22.201Z,57.07
2022-08-22T08:17:22.229Z,58.10
2022-08-22T08:18:22.251Z,59.49
2022-08-22T08:19:22.327Z,60.96
2022-08-22T08:20:22.152Z,59.53
2022-08-22T08:21:22.160Z,59.70
2022-08-22T08:22:22.141Z,57.66
2022-08-22T08:23:23.330Z,55.27
2022-08-22T08:24:22.120Z,57.46
2022-08-22T08:25:22.145Z,59.03
2022-08-22T08:26:22.211Z,57.48
2022-08-22T08:27:22.131Z,54.80
2022-08-22T08:28:22.149Z,55.27
2022-08-22T08:29:22.104Z,55.54
2022-08-22T08:30:22.083Z,51.47
2022-08-22T08:31:22.059Z,53.11
2022-08-22T08:32:22.082Z,54.35
2022-08-22T08:33:25.762Z,57.11
2022-08-22T08:34:22.068Z,54.10
2022-08-22T08:35:22.022Z,56.16
2022-08-22T08:36:22.024Z,52.56
2022-08-22T08:37:22.025Z,54.35
2022-08-22T08:38:22.010Z,53.50
2022-08-22T08:39:21.968Z,52.98
2022-08-22T08:40:22.006Z,53.35
2022-08-22T08:41:22.670Z,53.82
2022-08-22T08:42:21.950Z,50.34
2022-08-22T08:43:21.958Z,49.05
2022-08-22T08:44:21.915Z,49.47
2022-08-22T08:45:21.963Z,49.89
2022-08-22T08:46:21.888Z,52.14
2022-08-22T08:47:21.920Z,50.46
2022-08-22T08:48:21.885Z,51.72
2022-08-22T08:49:23.950Z,49.64
2022-08-22T08:50:21.863Z,50.53
2022-08-22T08:51:23.488Z,49.54
2022-08-22T08:52:21.863Z,49.27
2022-08-22T08:53:21.974Z,49.89
2022-08-22T08:54:21.862Z,49.49
2022-08-22T08:55:22.809Z,53.33
2022-08-22T08:56:21.794Z,49.64
2022-08-22T08:57:22.413Z,51.57
2022-08-22T08:58:21.797Z,50.46
2022-08-22T08:59:21.793Z,48.16
2022-08-22T09:00:21.755Z,47.28
2022-08-22T09:01:27.807Z,47.50
2022-08-22T09:02:23.500Z,46.51
2022-08-22T09:03:30.551Z,49.20
2022-08-22T09:04:22.766Z,49.05
2022-08-22T09:05:21.726Z,46.76
2022-08-22T09:06:21.689Z,48.71
2022-08-22T09:07:21.709Z,50.26
2022-08-22T09:08:21.682Z,47.97
2022-08-22T09:09:21.686Z,45.96
2022-08-22T09:10:21.817Z,45.96
2022-08-22T09:11:27.077Z,45.62
2022-08-22T09:12:22.695Z,45.81
2022-08-22T09:13:21.649Z,45.20
2022-08-22T09:14:21.625Z,43.22
2022-08-22T09:15:21.644Z,44.69
2022-08-22T09:16:21.664Z,44.57
2022-08-22T09:17:21.641Z,43.47
2022-08-22T09:18:21.574Z,43.15
2022-08-22T09:19:21.561Z,42.05
2022-08-22T09:20:21.585Z,42.05
2022-08-22T09:21:31.470Z,43.33
2022-08-22T09:22:22.609Z,41.76
2022-08-22T09:23:21.536Z,42.55
2022-08-22T09:24:21.564Z,42.74
2022-08-22T09:25:23.477Z,42.55
2022-08-22T09:26:21.525Z,41.39
2022-08-22T09:27:21.566Z,42.74
2022-08-22T09:28:21.508Z,39.43
2022-08-22T09:29:21.474Z,40.19
2022-08-22T09:30:28.498Z,42.71
2022-08-22T09:31:33.041Z,43.52
2022-08-22T09:32:22.494Z,43.84
2022-08-22T09:33:21.420Z,43.15
2022-08-22T09:34:23.775Z,44.21
2022-08-22T09:35:22.468Z,43.50
2022-08-22T09:36:21.416Z,43.01
2022-08-22T09:37:21.448Z,42.24
2022-08-22T09:38:21.385Z,41.86
2022-08-22T09:39:21.380Z,43.59
2022-08-22T09:41:21.415Z,47.03
2022-08-22T09:42:21.375Z,43.59
2022-08-22T09:43:22.866Z,48.00
2022-08-22T09:44:21.335Z,43.84
2022-08-22T09:45:22.519Z,45.09
2022-08-22T09:46:22.645Z,43.99
2022-08-22T09:47:24.669Z,46.11
2022-08-22T09:48:22.656Z,42.04
2022-08-22T09:49:22.426Z,43.15
2022-08-22T09:50:22.460Z,41.15
2022-08-22T09:51:32.191Z,40.72
2022-08-22T09:52:33.125Z,39.72
2022-08-22T09:53:24.488Z,39.29
2022-08-22T09:54:22.491Z,39.28
2022-08-22T09:55:27.888Z,37.50
2022-08-22T09:56:23.450Z,38.94
2022-08-22T09:57:22.766Z,37.77
2022-08-22T09:58:22.393Z,37.29
2022-08-22T09:59:22.361Z,38.73
2022-08-22T10:00:22.693Z,38.92
2022-08-22T10:01:22.402Z,36.31
2022-08-22T10:02:22.395Z,38.77
2022-08-22T10:03:22.351Z,37.81
2022-08-22T10:04:22.365Z,38.59
2022-08-22T10:05:35.198Z,38.38
2022-08-22T10:06:23.376Z,37.10
2022-08-22T10:07:22.325Z,38.51
2022-08-22T10:08:26.199Z,38.25
2022-08-22T10:09:26.393Z,38.90
2022-08-22T10:10:24.340Z,41.92
2022-08-22T10:11:22.290Z,40.78
2022-08-22T10:12:24.808Z,40.25
2022-08-22T10:13:22.247Z,38.73
2022-08-22T10:14:22.787Z,39.18
2022-08-22T10:15:22.298Z,39.75
2022-08-22T10:16:22.228Z,38.35
2022-08-22T10:17:22.233Z,37.29
2022-08-22T10:18:22.249Z,38.49
2022-08-22T10:19:22.193Z,36.16
2022-08-22T10:20:22.245Z,39.20
2022-08-22T10:21:22.256Z,34.89
2022-08-22T10:22:22.273Z,35.13
2022-08-22T10:23:22.122Z,36.37
2022-08-22T10:24:25.322Z,38.37
2022-08-22T10:25:22.123Z,38.50
2022-08-22T10:26:23.029Z,39.90
2022-08-22T10:27:22.671Z,38.66
2022-08-22T10:28:22.170Z,38.48
2022-08-22T10:29:22.158Z,39.84
2022-08-22T10:30:22.091Z,41.22
2022-08-22T10:31:23.092Z,42.72
2022-08-22T10:32:26.915Z,40.09
2022-08-22T10:33:23.005Z,36.16
2022-08-22T10:34:22.726Z,36.76
2022-08-22T10:35:22.071Z,37.78
2022-08-22T10:36:22.045Z,40.29
2022-08-22T10:37:23.941Z,38.53
2022-08-22T10:38:22.002Z,38.43
2022-08-22T10:39:22.542Z,37.88
2022-08-22T10:40:22.069Z,38.88
2022-08-22T10:41:23.032Z,39.50
2022-08-22T10:42:23.169Z,39.62
2022-08-22T10:43:21.962Z,39.15
2022-08-22T10:44:23.020Z,38.68
2022-08-22T10:45:35.110Z,39.76
2022-08-22T10:46:22.988Z,39.76
2022-08-22T10:47:21.955Z,39.07
2022-08-22T10:48:21.918Z,39.39
2022-08-22T10:49:22.445Z,38.91
2022-08-22T10:50:22.981Z,40.00
2022-08-22T10:51:22.900Z,39.62
2022-08-22T10:52:21.989Z,38.51
2022-08-22T10:53:24.696Z,40.41
2022-08-22T10:54:22.865Z,41.43
2022-08-22T10:55:21.825Z,41.85
2022-08-22T10:56:21.827Z,43.45
2022-08-22T10:57:21.855Z,44.64
2022-08-22T10:58:21.925Z,44.56
2022-08-22T10:59:22.746Z,44.24
2022-08-22T11:00:22.764Z,43.62
2022-08-22T11:01:38.272Z,46.74
2022-08-22T11:02:22.794Z,42.83
2022-08-22T11:03:23.535Z,39.47
2022-08-22T11:04:28.314Z,39.84
2022-08-22T11:05:22.820Z,39.90
2022-08-22T11:06:21.890Z,38.70
2022-08-22T11:07:21.953Z,37.78
2022-08-22T11:08:21.730Z,39.22
2022-08-22T11:09:21.725Z,37.29
2022-08-22T11:10:21.706Z,38.34
2022-08-22T11:11:21.733Z,34.52
2022-08-22T11:12:21.705Z,33.72
2022-08-22T11:13:21.810Z,34.80
2022-08-22T11:14:21.709Z,36.52
2022-08-22T11:15:26.215Z,37.27
2022-08-22T11:16:22.628Z,34.50
2022-08-22T11:17:31.149Z,31.77
2022-08-22T11:18:22.646Z,30.38
2022-08-22T11:19:21.658Z,30.02
2022-08-22T11:20:21.658Z,31.93
2022-08-22T11:21:21.596Z,32.82
2022-08-22T11:22:21.625Z,33.25
2022-08-22T11:23:21.755Z,34.16
2022-08-22T11:24:35.689Z,33.98
2022-08-22T11:25:36.038Z,34.21
2022-08-22T11:26:29.225Z,35.11
2022-08-22T11:27:25.409Z,36.57
2022-08-22T11:28:23.508Z,34.55
2022-08-22T11:29:21.518Z,32.75
2022-08-22T11:30:21.587Z,33.04
2022-08-22T11:31:21.629Z,34.86
2022-08-22T11:32:21.514Z,34.24
2022-08-22T11:33:21.546Z,31.95
2022-08-22T11:34:22.640Z,32.50
2022-08-22T11:35:21.507Z,31.70
2022-08-22T11:36:21.464Z,29.76
2022-08-22T11:37:24.053Z,30.71
2022-08-22T11:38:22.470Z,29.16
2022-08-22T11:39:21.462Z,29.26
2022-08-22T11:40:21.546Z,33.46
2022-08-22T11:41:21.454Z,31.01
2022-08-22T11:42:21.940Z,32.18
2022-08-22T11:43:21.409Z,29.46
2022-08-22T11:44:21.405Z,32.49
2022-08-22T11:45:21.582Z,29.74
2022-08-22T11:46:21.390Z,31.97
2022-08-22T11:47:24.173Z,30.77
2022-08-22T11:48:22.362Z,29.28
2022-08-22T11:49:21.327Z,28.91
2022-08-22T11:50:22.365Z,28.99
2022-08-22T11:51:24.832Z,30.99
2022-08-22T11:52:21.346Z,32.09
2022-08-22T11:53:21.364Z,31.92
2022-08-22T11:54:21.373Z,31.43
2022-08-22T11:55:22.377Z,30.54
2022-08-22T11:56:21.362Z,29.56
2022-08-22T11:57:22.259Z,31.25
2022-08-22T11:58:21.412Z,30.59
2022-08-22T11:59:22.622Z,31.11
2022-08-22T12:00:21.328Z,32.40
2022-08-22T12:01:21.285Z,33.00
2022-08-22T12:02:21.327Z,33.61
2022-08-22T12:03:23.291Z,33.82
2022-08-22T12:04:21.321Z,33.62
2022-08-22T12:05:26.162Z,34.03
2022-08-22T12:06:22.283Z,35.24
2022-08-22T12:07:21.310Z,34.18
2022-08-22T12:08:21.523Z,34.18
2022-08-22T12:09:21.352Z,34.78
2022-08-22T12:10:21.258Z,36.36
2022-08-22T12:11:21.308Z,35.33
2022-08-22T12:12:21.335Z,33.82
2022-08-22T12:13:21.203Z,32.74
2022-08-22T12:14:22.169Z,34.08
2022-08-22T12:15:21.488Z,33.17
2022-08-22T12:16:21.168Z,32.06
2022-08-22T12:17:44.044Z,30.57
2022-08-22T12:18:22.205Z,30.93
2022-08-22T12:19:22.926Z,30.31
2022-08-22T12:20:21.199Z,28.92
2022-08-22T12:21:21.608Z,27.64
2022-08-22T12:22:21.119Z,27.04
2022-08-22T12:23:21.099Z,28.58
2022-08-22T12:24:21.167Z,28.28
2022-08-22T12:25:22.492Z,26.23
2022-08-22T12:26:21.925Z,27.98
2022-08-22T12:27:29.158Z,26.44
2022-08-22T12:28:21.990Z,27.06
2022-08-22T12:29:33.378Z,28.32
2022-08-22T12:30:22.024Z,28.02
2022-08-22T12:31:21.094Z,27.03
2022-08-22T12:32:27.607Z,25.56
2022-08-22T12:33:23.190Z,27.11
2022-08-22T13:08:02.421Z,29.69
2022-08-22T13:08:58.087Z,31.27
2022-08-22T13:09:57.589Z,29.98
2022-08-22T13:12:44.052Z,30.98
2022-08-22T13:13:40.645Z,29.90
2022-08-22T13:14:40.714Z,30.78
2022-08-22T13:15:41.934Z,29.70
2022-08-22T13:21:12.721Z,30.99
2022-08-22T13:21:46.200Z,30.99
2022-08-22T13:22:45.669Z,31.06
2022-08-22T13:26:43.389Z,30.08
2022-08-22T13:29:50.447Z,29.88
2022-08-22T13:30:59.866Z,30.18
2022-08-22T13:41:35.348Z,28.74
2022-08-22T15:01:54.813Z,32.39
2022-08-22T15:02:54.629Z,31.00
2022-08-22T15:03:54.639Z,31.87
2022-08-22T15:04:54.595Z,30.98
2022-08-22T15:05:54.597Z,31.77
2022-08-22T15:06:54.570Z,30.90
2022-08-22T15:07:54.586Z,33.08
2022-08-22T15:08:54.582Z,31.80
2022-08-22T15:09:54.560Z,33.38
2022-08-22T15:10:54.534Z,33.67
2022-08-22T15:11:54.535Z,32.51
2022-08-22T15:12:54.548Z,33.49
2022-08-22T15:13:54.536Z,32.01
2022-08-22T15:14:54.510Z,32.01
2022-08-22T15:15:59.797Z,32.70
2022-08-22T15:16:55.474Z,33.28
2022-08-22T15:17:54.493Z,32.59
2022-08-22T15:18:54.473Z,31.42
2022-08-22T15:19:54.471Z,32.60
2022-08-22T15:20:54.443Z,32.49
2022-08-22T15:21:54.447Z,34.17
2022-08-22T15:22:54.459Z,31.90
2022-08-22T15:23:54.441Z,31.60
2022-08-22T15:24:56.297Z,33.48
2022-08-22T15:25:54.387Z,31.41
2022-08-22T15:26:55.313Z,32.89
2022-08-22T15:27:54.436Z,31.41
2022-08-22T15:28:55.235Z,30.43
2022-08-22T15:29:54.360Z,32.49
2022-08-22T15:30:54.341Z,32.49
2022-08-22T15:31:54.328Z,33.00
2022-08-22T15:32:54.334Z,32.80
2022-08-22T15:33:54.316Z,31.72
2022-08-22T15:34:54.334Z,32.41
2022-08-22T15:35:54.300Z,32.60
2022-08-22T15:36:54.318Z,33.29
2022-08-22T15:37:54.283Z,33.58
2022-08-22T15:38:54.258Z,32.29
2022-08-22T15:39:54.321Z,31.90
2022-08-22T15:40:54.242Z,33.18
2022-08-22T15:41:54.230Z,32.01
2022-08-22T15:42:54.238Z,32.29
2022-08-22T15:43:54.215Z,31.31
2022-08-22T15:44:54.206Z,31.70
2022-08-22T15:45:54.211Z,31.72
2022-08-22T15:46:54.180Z,31.52
2022-08-22T15:47:54.211Z,30.93
2022-08-22T15:48:54.157Z,31.32
2022-08-22T15:49:54.161Z,32.21
2022-08-22T15:50:54.138Z,32.70
2022-08-22T15:51:54.135Z,32.41
2022-08-22T15:52:58.196Z,32.01
2022-08-22T15:53:55.113Z,31.82
2022-08-22T15:54:54.100Z,32.51
2022-08-22T15:55:54.101Z,31.82
2022-08-22T15:56:54.244Z,33.49
2022-08-22T15:57:54.185Z,32.11
2022-08-22T15:58:54.069Z,32.52
2022-08-22T15:59:54.740Z,33.61
2022-08-22T16:00:54.099Z,33.11
2022-08-22T16:01:54.086Z,32.03
2022-08-22T16:02:54.074Z,33.33
2022-08-22T16:03:54.008Z,32.93
2022-08-22T16:04:53.993Z,32.93
2022-08-22T16:06:02.221Z,34.12
2022-08-22T16:06:55.007Z,33.92
2022-08-22T16:07:53.975Z,33.42
2022-08-22T16:08:53.954Z,33.74
2022-08-22T16:09:53.949Z,33.64
2022-08-22T16:10:53.978Z,33.62
2022-08-22T16:11:53.930Z,33.03
2022-08-22T16:12:53.950Z,32.93
2022-08-22T16:13:53.927Z,33.72
2022-08-22T16:14:53.894Z,34.12
2022-08-22T16:15:56.713Z,33.62
2022-08-22T16:16:53.873Z,33.33
2022-08-22T16:17:53.901Z,32.44
2022-08-22T16:18:53.853Z,32.44
2022-08-22T16:19:53.842Z,31.95
2022-08-22T16:20:53.836Z,33.15
2022-08-22T16:21:53.829Z,33.25
2022-08-22T16:22:53.827Z,32.75
2022-08-22T16:23:53.804Z,33.64
2022-08-22T16:24:53.794Z,33.15
2022-08-22T16:25:53.785Z,33.74
2022-08-22T16:26:53.769Z,33.15
2022-08-22T16:27:53.850Z,33.84
2022-08-22T16:28:58.321Z,33.84
2022-08-22T16:29:54.748Z,33.74
2022-08-22T16:30:53.735Z,32.16
2022-08-22T16:31:54.703Z,32.06
2022-08-22T16:32:55.302Z,33.46
2022-08-22T16:33:53.756Z,31.78
2022-08-22T16:34:53.704Z,33.94
2022-08-22T16:35:53.718Z,34.03
2022-08-22T16:36:53.684Z,33.54
2022-08-22T16:37:53.732Z,33.46
2022-08-22T16:38:53.702Z,33.16
2022-08-22T16:39:53.692Z,32.28
2022-08-22T16:40:53.668Z,32.07
2022-08-22T16:41:53.652Z,32.67
2022-08-22T16:42:53.636Z,33.06
2022-08-22T16:43:55.207Z,33.84
2022-08-22T16:44:53.587Z,33.44
2022-08-22T16:45:53.615Z,32.97
2022-08-22T16:46:53.571Z,32.47
2022-08-22T16:47:58.247Z,33.46
2022-08-22T16:48:54.585Z,33.46
2022-08-22T16:49:53.566Z,34.25
2022-08-22T16:50:53.551Z,33.97
2022-08-22T16:51:53.625Z,33.77
2022-08-22T16:52:53.536Z,33.77
2022-08-22T16:53:53.538Z,34.15
2022-08-22T16:54:53.497Z,35.25
2022-08-22T16:55:53.479Z,34.27
2022-08-22T16:56:53.467Z,35.47
2022-08-22T16:58:05.775Z,35.27
2022-08-22T16:59:03.354Z,35.45
2022-08-22T16:59:55.210Z,34.08
2022-08-22T17:00:57.696Z,34.97
2022-08-22T17:01:53.538Z,35.47
2022-08-22T17:02:53.406Z,34.99
2022-08-22T17:03:53.426Z,35.76
2022-08-22T17:04:53.387Z,35.98
2022-08-22T17:05:53.432Z,35.38
2022-08-22T17:06:53.401Z,34.59
2022-08-22T17:07:53.365Z,35.38
2022-08-22T17:08:53.371Z,35.88
2022-08-22T17:09:53.348Z,35.09
2022-08-22T17:10:53.331Z,36.27
2022-08-22T17:11:53.320Z,36.27
2022-08-22T17:12:53.320Z,36.27
2022-08-22T17:13:53.306Z,36.47
2022-08-22T17:14:53.287Z,36.37
2022-08-22T17:15:53.283Z,36.69
2022-08-22T17:16:54.238Z,35.99
2022-08-22T17:17:53.263Z,36.77
2022-08-22T17:18:53.261Z,36.18
2022-08-22T17:19:53.250Z,36.27
2022-08-22T17:20:53.226Z,36.29
2022-08-22T17:21:53.592Z,36.49
2022-08-22T17:22:53.208Z,36.69
2022-08-22T17:23:53.210Z,36.29
2022-08-22T17:24:53.191Z,36.39
2022-08-22T17:25:53.177Z,36.39
2022-08-22T17:26:54.331Z,36.79
2022-08-22T17:27:53.158Z,37.18
2022-08-22T17:28:53.195Z,37.20
2022-08-22T17:29:53.150Z,37.30
2022-08-22T17:30:53.152Z,36.61
2022-08-22T17:31:53.118Z,37.10
2022-08-22T17:32:57.150Z,36.51
2022-08-22T17:33:54.148Z,37.60
2022-08-22T17:34:53.096Z,37.22
2022-08-22T17:35:53.104Z,36.62
2022-08-22T17:36:53.094Z,37.32
2022-08-22T17:37:53.067Z,36.82
2022-08-22T17:38:53.056Z,37.93
2022-08-22T17:39:55.541Z,37.51
2022-08-22T17:40:53.049Z,37.41
2022-08-22T17:41:53.024Z,37.24
2022-08-22T17:42:53.025Z,37.73
2022-08-22T17:43:53.009Z,38.23
2022-08-22T17:44:53.037Z,37.13
2022-08-22T17:45:52.985Z,38.03
2022-08-22T17:46:52.970Z,38.15
2022-08-22T17:47:52.963Z,38.05
2022-08-22T17:48:52.981Z,37.65
2022-08-22T17:49:52.956Z,37.45
2022-08-22T17:50:52.958Z,37.85
2022-08-22T17:51:52.915Z,37.35
2022-08-22T17:52:52.914Z,38.34
2022-08-22T17:53:52.900Z,38.17
2022-08-22T17:54:52.901Z,38.17
2022-08-22T17:55:52.880Z,39.65
2022-08-22T17:57:02.668Z,39.25
2022-08-22T17:57:53.861Z,39.47
2022-08-22T17:58:52.853Z,39.47
2022-08-22T17:59:52.855Z,38.68
2022-08-22T18:00:52.893Z,39.07
2022-08-22T18:01:52.836Z,39.47
2022-08-22T18:02:54.066Z,42.86
2022-08-22T18:03:53.985Z,45.25
2022-08-22T18:04:53.973Z,47.16
2022-08-22T18:05:53.938Z,46.95
2022-08-22T18:06:56.326Z,48.07
2022-08-22T18:07:53.910Z,47.97
2022-08-22T18:09:55.926Z,47.99
2022-08-22T18:10:53.899Z,48.41
2022-08-22T18:11:53.894Z,48.02
2022-08-22T18:12:53.959Z,48.04